sensor_id;sensor_type;location;lat;lon;timestamp;temperature;humidity
29255;DHT22;16277;48.890;2.306;2023-04-08T00:01:42;15.40;90.60
29255;DHT22;16277;48.890;2.306;2023-04-08T00:16:47;15.20;90.60
29255;DHT22;16277;48.890;2.306;2023-04-08T00:31:52;15.20;90.60
29255;DHT22;16277;48.890;2.306;2023-04-08T00:46:58;15.20;90.70
29255;DHT22;16277;48.890;2.306;2023-04-08T01:02:10;14.90;91.00
29255;DHT22;16277;48.890;2.306;2023-04-08T01:17:17;14.80;91.20
29255;DHT22;16277;48.890;2.306;2023-04-08T01:32:25;14.80;91.20
29255;DHT22;16277;48.890;2.306;2023-04-08T01:47:30;14.50;91.60
29255;DHT22;16277;48.890;2.306;2023-04-08T02:02:36;14.70;91.20
29255;DHT22;16277;48.890;2.306;2023-04-08T02:17:43;14.60;91.40
29255;DHT22;16277;48.890;2.306;2023-04-08T02:32:49;14.40;91.30
29255;DHT22;16277;48.890;2.306;2023-04-08T02:47:55;14.50;91.40
29255;DHT22;16277;48.890;2.306;2023-04-08T03:03:03;14.40;91.60
29255;DHT22;16277;48.890;2.306;2023-04-08T03:18:08;14.00;92.20
29255;DHT22;16277;48.890;2.306;2023-04-08T03:33:14;14.10;92.10
29255;DHT22;16277;48.890;2.306;2023-04-08T03:48:19;13.80;92.20
29255;DHT22;16277;48.890;2.306;2023-04-08T04:03:23;14.00;92.00
29255;DHT22;16277;48.890;2.306;2023-04-08T04:18:28;14.10;91.70
29255;DHT22;16277;48.890;2.306;2023-04-08T04:33:33;13.60;92.20
29255;DHT22;16277;48.890;2.306;2023-04-08T04:48:40;13.70;91.90
29255;DHT22;16277;48.890;2.306;2023-04-08T05:03:45;13.40;92.10
29255;DHT22;16277;48.890;2.306;2023-04-08T05:18:50;13.50;92.10
29255;DHT22;16277;48.890;2.306;2023-04-08T05:33:55;13.30;92.50
29255;DHT22;16277;48.890;2.306;2023-04-08T05:49:00;13.60;92.10
29255;DHT22;16277;48.890;2.306;2023-04-08T06:04:06;13.20;93.00
29255;DHT22;16277;48.890;2.306;2023-04-08T06:19:11;13.00;93.00
29255;DHT22;16277;48.890;2.306;2023-04-08T06:34:16;12.70;93.50
29255;DHT22;16277;48.890;2.306;2023-04-08T06:49:20;13.30;92.60
29255;DHT22;16277;48.890;2.306;2023-04-08T07:04:25;13.70;91.90
29255;DHT22;16277;48.890;2.306;2023-04-08T07:19:29;13.80;91.70
29255;DHT22;16277;48.890;2.306;2023-04-08T07:34:35;13.80;91.50
29255;DHT22;16277;48.890;2.306;2023-04-08T07:49:39;13.50;92.20
29255;DHT22;16277;48.890;2.306;2023-04-08T08:04:44;14.10;91.30
29255;DHT22;16277;48.890;2.306;2023-04-08T08:19:48;14.20;91.80
29255;DHT22;16277;48.890;2.306;2023-04-08T08:34:53;14.10;91.00
29255;DHT22;16277;48.890;2.306;2023-04-08T08:49:57;14.30;91.20
29255;DHT22;16277;48.890;2.306;2023-04-08T09:05:03;14.60;90.90
29255;DHT22;16277;48.890;2.306;2023-04-08T09:20:09;14.70;91.00
29255;DHT22;16277;48.890;2.306;2023-04-08T09:35:14;13.80;91.90
29255;DHT22;16277;48.890;2.306;2023-04-08T09:50:23;14.80;91.30
29255;DHT22;16277;48.890;2.306;2023-04-08T10:05:30;14.70;90.90
29255;DHT22;16277;48.890;2.306;2023-04-08T10:20:44;14.40;91.70
29255;DHT22;16277;48.890;2.306;2023-04-08T10:35:53;14.40;91.40
29255;DHT22;16277;48.890;2.306;2023-04-08T10:50:58;15.40;90.80
29255;DHT22;16277;48.890;2.306;2023-04-08T11:06:03;15.90;88.70
29255;DHT22;16277;48.890;2.306;2023-04-08T11:21:09;15.10;89.00
29255;DHT22;16277;48.890;2.306;2023-04-08T11:36:14;15.80;86.30
29255;DHT22;16277;48.890;2.306;2023-04-08T11:51:20;15.80;87.60
29255;DHT22;16277;48.890;2.306;2023-04-08T12:06:26;16.90;84.60
29255;DHT22;16277;48.890;2.306;2023-04-08T12:21:31;17.40;84.40
29255;DHT22;16277;48.890;2.306;2023-04-08T12:36:36;17.60;80.20
29255;DHT22;16277;48.890;2.306;2023-04-08T12:51:44;17.90;78.10
29255;DHT22;16277;48.890;2.306;2023-04-08T13:06:48;18.00;79.50
29255;DHT22;16277;48.890;2.306;2023-04-08T13:21:53;18.40;76.90
29255;DHT22;16277;48.890;2.306;2023-04-08T13:36:58;19.60;72.50
29255;DHT22;16277;48.890;2.306;2023-04-08T13:52:02;20.30;70.20
29255;DHT22;16277;48.890;2.306;2023-04-08T14:07:07;21.80;65.70
29255;DHT22;16277;48.890;2.306;2023-04-08T14:22:12;21.90;59.20
29255;DHT22;16277;48.890;2.306;2023-04-08T14:37:17;27.10;52.10
29255;DHT22;16277;48.890;2.306;2023-04-08T14:52:21;29.50;45.30
29255;DHT22;16277;48.890;2.306;2023-04-08T15:07:27;30.40;44.00
29255;DHT22;16277;48.890;2.306;2023-04-08T15:22:31;31.40;40.60
29255;DHT22;16277;48.890;2.306;2023-04-08T15:37:36;29.90;41.80
29255;DHT22;16277;48.890;2.306;2023-04-08T15:52:40;29.90;42.60
29255;DHT22;16277;48.890;2.306;2023-04-08T16:07:44;27.50;46.30
29255;DHT22;16277;48.890;2.306;2023-04-08T16:22:49;26.50;47.50
29255;DHT22;16277;48.890;2.306;2023-04-08T16:37:54;26.80;46.90
29255;DHT22;16277;48.890;2.306;2023-04-08T16:52:58;26.20;48.00
29255;DHT22;16277;48.890;2.306;2023-04-08T17:08:03;25.70;48.80
29255;DHT22;16277;48.890;2.306;2023-04-08T17:23:07;25.00;50.30
29255;DHT22;16277;48.890;2.306;2023-04-08T17:38:12;23.80;53.10
29255;DHT22;16277;48.890;2.306;2023-04-08T17:53:17;22.90;54.90
29255;DHT22;16277;48.890;2.306;2023-04-08T18:08:21;22.10;56.40
29255;DHT22;16277;48.890;2.306;2023-04-08T18:23:26;20.70;59.30
29255;DHT22;16277;48.890;2.306;2023-04-08T18:38:30;20.10;60.60
29255;DHT22;16277;48.890;2.306;2023-04-08T18:53:35;19.70;63.80
29255;DHT22;16277;48.890;2.306;2023-04-08T19:08:40;19.20;66.10
29255;DHT22;16277;48.890;2.306;2023-04-08T19:23:44;19.00;67.10
29255;DHT22;16277;48.890;2.306;2023-04-08T19:38:51;18.60;67.70
29255;DHT22;16277;48.890;2.306;2023-04-08T19:53:55;18.10;68.50
29255;DHT22;16277;48.890;2.306;2023-04-08T20:09:00;17.90;69.50
29255;DHT22;16277;48.890;2.306;2023-04-08T20:24:07;18.10;70.20
29255;DHT22;16277;48.890;2.306;2023-04-08T20:39:12;17.60;70.70
29255;DHT22;16277;48.890;2.306;2023-04-08T20:54:17;17.50;72.20
29255;DHT22;16277;48.890;2.306;2023-04-08T21:09:21;17.70;72.10
29255;DHT22;16277;48.890;2.306;2023-04-08T21:24:26;17.50;72.60
29255;DHT22;16277;48.890;2.306;2023-04-08T21:39:30;17.10;73.60
29255;DHT22;16277;48.890;2.306;2023-04-08T21:54:35;17.10;74.30
29255;DHT22;16277;48.890;2.306;2023-04-08T22:09:39;17.20;75.00
29255;DHT22;16277;48.890;2.306;2023-04-08T22:24:44;17.20;75.10
29255;DHT22;16277;48.890;2.306;2023-04-08T22:39:48;17.10;75.00
29255;DHT22;16277;48.890;2.306;2023-04-08T22:54:53;16.90;74.50
29255;DHT22;16277;48.890;2.306;2023-04-08T23:09:57;17.00;76.50
29255;DHT22;16277;48.890;2.306;2023-04-08T23:25:02;16.80;75.50
29255;DHT22;16277;48.890;2.306;2023-04-08T23:40:08;16.80;75.90
29255;DHT22;16277;48.890;2.306;2023-04-08T23:55:13;16.50;76.70
